Chalican, Argentina
Current Conditions -  °F | °C
As of 1:00 PM on Thursday 30 Oct 2014 (Local Time) from SASJ Reporting Station
Broken Clouds Broken Clouds  
Wind Chill: 81°   Ceiling: 10000
Heat Index: 81°   Visibility: 6mi
Dew Point: 59°   Wind: 6mph
Humidity: 48%   Direction: 180°S
Pressure: 29.83"   Gusts: NA
Location:  24°S, 64.8°W
Report Text: SASJ 301600Z 18005KT 090V240 9999 SCT030BKN100 27/15 Q1010
Loading
Personal Weather Stations






























Interactive Weather Map New forecast layout! Learn more

10-Day Weather Forecast

Advertisements
Track Severe Weather on mobile